sensor_id;sensor_type;location;lat;lon;timestamp;P1;durP1;ratioP1;P2;durP2;ratioP2
21513;SDS011;10918;48.102;11.636;2022-07-22T00:00:38;14.63;;;13.23;;
21513;SDS011;10918;48.102;11.636;2022-07-22T00:03:04;13.98;;;12.52;;
21513;SDS011;10918;48.102;11.636;2022-07-22T00:05:30;14.30;;;12.68;;
21513;SDS011;10918;48.102;11.636;2022-07-22T00:07:56;13.15;;;11.85;;
21513;SDS011;10918;48.102;11.636;2022-07-22T00:10:22;14.23;;;12.68;;
21513;SDS011;10918;48.102;11.636;2022-07-22T00:12:48;14.60;;;13.10;;
21513;SDS011;10918;48.102;11.636;2022-07-22T00:15:14;13.75;;;12.40;;
21513;SDS011;10918;48.102;11.636;2022-07-22T00:17:40;13.88;;;12.48;;
21513;SDS011;10918;48.102;11.636;2022-07-22T00:20:06;15.07;;;12.48;;
21513;SDS011;10918;48.102;11.636;2022-07-22T00:22:33;14.02;;;12.25;;
21513;SDS011;10918;48.102;11.636;2022-07-22T00:24:59;13.25;;;11.90;;
21513;SDS011;10918;48.102;11.636;2022-07-22T00:27:25;12.93;;;11.57;;
21513;SDS011;10918;48.102;11.636;2022-07-22T00:29:51;14.57;;;12.98;;
21513;SDS011;10918;48.102;11.636;2022-07-22T00:32:17;13.65;;;12.23;;
21513;SDS011;10918;48.102;11.636;2022-07-22T00:34:43;13.93;;;11.98;;
21513;SDS011;10918;48.102;11.636;2022-07-22T00:37:09;13.32;;;11.93;;
21513;SDS011;10918;48.102;11.636;2022-07-22T00:39:35;12.85;;;11.52;;
21513;SDS011;10918;48.102;11.636;2022-07-22T00:42:01;12.80;;;11.57;;
21513;SDS011;10918;48.102;11.636;2022-07-22T00:44:27;13.07;;;11.82;;
21513;SDS011;10918;48.102;11.636;2022-07-22T00:46:53;12.88;;;11.55;;
21513;SDS011;10918;48.102;11.636;2022-07-22T00:49:19;13.35;;;12.05;;
21513;SDS011;10918;48.102;11.636;2022-07-22T00:51:46;16.10;;;14.50;;
21513;SDS011;10918;48.102;11.636;2022-07-22T00:54:12;13.85;;;12.45;;
21513;SDS011;10918;48.102;11.636;2022-07-22T00:56:38;11.90;;;10.77;;
21513;SDS011;10918;48.102;11.636;2022-07-22T00:59:06;13.35;;;12.00;;
21513;SDS011;10918;48.102;11.636;2022-07-22T01:01:32;13.55;;;12.25;;
21513;SDS011;10918;48.102;11.636;2022-07-22T01:03:58;15.23;;;11.82;;
21513;SDS011;10918;48.102;11.636;2022-07-22T01:06:24;13.70;;;11.57;;
21513;SDS011;10918;48.102;11.636;2022-07-22T01:08:50;14.63;;;11.90;;
21513;SDS011;10918;48.102;11.636;2022-07-22T01:11:17;12.85;;;11.65;;
21513;SDS011;10918;48.102;11.636;2022-07-22T01:13:44;12.52;;;11.23;;
21513;SDS011;10918;48.102;11.636;2022-07-22T01:16:11;12.77;;;11.23;;
21513;SDS011;10918;48.102;11.636;2022-07-22T01:18:37;12.88;;;11.57;;
21513;SDS011;10918;48.102;11.636;2022-07-22T01:21:04;13.57;;;12.23;;
21513;SDS011;10918;48.102;11.636;2022-07-22T01:23:31;13.82;;;10.98;;
21513;SDS011;10918;48.102;11.636;2022-07-22T01:25:57;11.82;;;10.73;;
21513;SDS011;10918;48.102;11.636;2022-07-22T01:28:23;12.35;;;11.15;;
21513;SDS011;10918;48.102;11.636;2022-07-22T01:30:49;12.02;;;10.82;;
21513;SDS011;10918;48.102;11.636;2022-07-22T01:33:19;12.30;;;11.05;;
21513;SDS011;10918;48.102;11.636;2022-07-22T01:35:46;12.80;;;11.05;;
21513;SDS011;10918;48.102;11.636;2022-07-22T01:38:12;12.77;;;11.43;;
21513;SDS011;10918;48.102;11.636;2022-07-22T01:40:39;12.73;;;11.48;;
21513;SDS011;10918;48.102;11.636;2022-07-22T01:43:05;13.05;;;11.32;;
21513;SDS011;10918;48.102;11.636;2022-07-22T01:45:31;14.18;;;12.52;;
21513;SDS011;10918;48.102;11.636;2022-07-22T01:47:58;13.10;;;11.30;;
21513;SDS011;10918;48.102;11.636;2022-07-22T01:50:24;12.95;;;11.65;;
21513;SDS011;10918;48.102;11.636;2022-07-22T01:52:50;12.10;;;10.80;;
21513;SDS011;10918;48.102;11.636;2022-07-22T01:55:16;13.07;;;10.88;;
21513;SDS011;10918;48.102;11.636;2022-07-22T01:57:43;12.18;;;10.88;;
21513;SDS011;10918;48.102;11.636;2022-07-22T02:00:09;15.95;;;11.52;;
21513;SDS011;10918;48.102;11.636;2022-07-22T02:02:36;13.32;;;11.75;;
21513;SDS011;10918;48.102;11.636;2022-07-22T02:05:03;12.77;;;11.52;;
21513;SDS011;10918;48.102;11.636;2022-07-22T02:07:29;11.95;;;10.73;;
21513;SDS011;10918;48.102;11.636;2022-07-22T02:09:56;12.30;;;11.10;;
21513;SDS011;10918;48.102;11.636;2022-07-22T02:12:22;12.45;;;11.27;;
21513;SDS011;10918;48.102;11.636;2022-07-22T02:14:48;12.43;;;11.23;;
21513;SDS011;10918;48.102;11.636;2022-07-22T02:17:14;11.77;;;10.68;;
21513;SDS011;10918;48.102;11.636;2022-07-22T02:19:41;13.18;;;11.77;;
21513;SDS011;10918;48.102;11.636;2022-07-22T02:22:07;14.23;;;11.63;;
21513;SDS011;10918;48.102;11.636;2022-07-22T02:24:33;12.68;;;11.38;;
21513;SDS011;10918;48.102;11.636;2022-07-22T02:26:59;12.50;;;11.23;;
21513;SDS011;10918;48.102;11.636;2022-07-22T02:29:26;12.88;;;11.52;;
21513;SDS011;10918;48.102;11.636;2022-07-22T02:31:53;12.35;;;10.77;;
21513;SDS011;10918;48.102;11.636;2022-07-22T02:34:19;12.38;;;11.07;;
21513;SDS011;10918;48.102;11.636;2022-07-22T02:36:45;12.35;;;11.13;;
21513;SDS011;10918;48.102;11.636;2022-07-22T02:39:11;13.27;;;11.63;;
21513;SDS011;10918;48.102;11.636;2022-07-22T02:41:37;13.00;;;11.70;;
21513;SDS011;10918;48.102;11.636;2022-07-22T02:44:03;12.63;;;11.18;;
21513;SDS011;10918;48.102;11.636;2022-07-22T02:46:30;12.65;;;11.38;;
21513;SDS011;10918;48.102;11.636;2022-07-22T02:48:56;12.98;;;11.68;;
21513;SDS011;10918;48.102;11.636;2022-07-22T02:51:22;12.48;;;11.18;;
21513;SDS011;10918;48.102;11.636;2022-07-22T02:53:48;12.85;;;11.55;;
21513;SDS011;10918;48.102;11.636;2022-07-22T02:56:14;11.77;;;10.65;;
21513;SDS011;10918;48.102;11.636;2022-07-22T02:58:41;12.57;;;11.27;;
21513;SDS011;10918;48.102;11.636;2022-07-22T03:01:07;12.52;;;11.23;;
21513;SDS011;10918;48.102;11.636;2022-07-22T03:03:33;12.68;;;11.48;;
21513;SDS011;10918;48.102;11.636;2022-07-22T03:05:59;12.73;;;11.48;;
21513;SDS011;10918;48.102;11.636;2022-07-22T03:08:25;12.07;;;10.88;;
21513;SDS011;10918;48.102;11.636;2022-07-22T03:10:51;13.13;;;11.93;;
21513;SDS011;10918;48.102;11.636;2022-07-22T03:13:18;14.13;;;11.48;;
21513;SDS011;10918;48.102;11.636;2022-07-22T03:15:44;13.07;;;11.77;;
21513;SDS011;10918;48.102;11.636;2022-07-22T03:18:10;13.98;;;11.52;;
21513;SDS011;10918;48.102;11.636;2022-07-22T03:20:36;13.25;;;11.80;;
21513;SDS011;10918;48.102;11.636;2022-07-22T03:23:02;12.93;;;11.63;;
21513;SDS011;10918;48.102;11.636;2022-07-22T03:25:28;16.40;;;12.25;;
21513;SDS011;10918;48.102;11.636;2022-07-22T03:27:56;12.65;;;11.43;;
21513;SDS011;10918;48.102;11.636;2022-07-22T03:30:22;13.90;;;12.50;;
21513;SDS011;10918;48.102;11.636;2022-07-22T03:32:48;13.63;;;12.32;;
21513;SDS011;10918;48.102;11.636;2022-07-22T03:35:14;13.10;;;11.73;;
21513;SDS011;10918;48.102;11.636;2022-07-22T03:37:40;13.18;;;11.77;;
21513;SDS011;10918;48.102;11.636;2022-07-22T03:40:07;12.77;;;11.57;;
21513;SDS011;10918;48.102;11.636;2022-07-22T03:42:33;12.82;;;11.50;;
21513;SDS011;10918;48.102;11.636;2022-07-22T03:44:59;12.95;;;11.15;;
21513;SDS011;10918;48.102;11.636;2022-07-22T03:47:25;13.75;;;12.00;;
21513;SDS011;10918;48.102;11.636;2022-07-22T03:49:51;14.80;;;11.88;;
21513;SDS011;10918;48.102;11.636;2022-07-22T03:52:17;12.70;;;11.40;;
21513;SDS011;10918;48.102;11.636;2022-07-22T03:54:43;12.93;;;11.52;;
21513;SDS011;10918;48.102;11.636;2022-07-22T03:57:09;13.13;;;11.75;;
21513;SDS011;10918;48.102;11.636;2022-07-22T03:59:35;15.27;;;10.88;;
21513;SDS011;10918;48.102;11.636;2022-07-22T04:02:02;12.90;;;11.60;;
21513;SDS011;10918;48.102;11.636;2022-07-22T04:04:28;12.88;;;11.57;;
21513;SDS011;10918;48.102;11.636;2022-07-22T04:06:54;14.20;;;11.77;;
21513;SDS011;10918;48.102;11.636;2022-07-22T04:09:20;14.88;;;12.23;;
21513;SDS011;10918;48.102;11.636;2022-07-22T04:11:46;14.50;;;11.73;;
21513;SDS011;10918;48.102;11.636;2022-07-22T04:14:13;15.15;;;13.40;;
21513;SDS011;10918;48.102;11.636;2022-07-22T04:16:39;14.85;;;13.35;;
21513;SDS011;10918;48.102;11.636;2022-07-22T04:19:05;14.73;;;12.77;;
21513;SDS011;10918;48.102;11.636;2022-07-22T04:21:31;14.85;;;12.15;;
21513;SDS011;10918;48.102;11.636;2022-07-22T04:23:57;15.85;;;13.32;;
21513;SDS011;10918;48.102;11.636;2022-07-22T04:26:23;14.23;;;12.60;;
21513;SDS011;10918;48.102;11.636;2022-07-22T04:28:48;12.82;;;11.60;;
21513;SDS011;10918;48.102;11.636;2022-07-22T04:31:14;13.93;;;12.43;;
21513;SDS011;10918;48.102;11.636;2022-07-22T04:33:40;13.88;;;12.48;;
21513;SDS011;10918;48.102;11.636;2022-07-22T04:36:07;12.88;;;11.55;;
21513;SDS011;10918;48.102;11.636;2022-07-22T04:38:33;14.95;;;12.07;;
21513;SDS011;10918;48.102;11.636;2022-07-22T04:40:59;13.20;;;11.82;;
21513;SDS011;10918;48.102;11.636;2022-07-22T04:43:25;12.88;;;11.60;;
21513;SDS011;10918;48.102;11.636;2022-07-22T04:45:51;13.32;;;11.95;;
21513;SDS011;10918;48.102;11.636;2022-07-22T04:48:17;13.85;;;12.45;;
21513;SDS011;10918;48.102;11.636;2022-07-22T04:50:43;14.40;;;12.88;;
21513;SDS011;10918;48.102;11.636;2022-07-22T04:53:09;19.38;;;12.68;;
21513;SDS011;10918;48.102;11.636;2022-07-22T04:55:35;14.60;;;13.05;;
21513;SDS011;10918;48.102;11.636;2022-07-22T04:58:01;13.13;;;11.65;;
21513;SDS011;10918;48.102;11.636;2022-07-22T05:00:27;13.00;;;11.70;;
21513;SDS011;10918;48.102;11.636;2022-07-22T05:02:53;14.85;;;12.55;;
21513;SDS011;10918;48.102;11.636;2022-07-22T05:05:20;12.77;;;11.48;;
21513;SDS011;10918;48.102;11.636;2022-07-22T05:07:46;15.40;;;11.73;;
21513;SDS011;10918;48.102;11.636;2022-07-22T05:10:12;14.02;;;12.63;;
21513;SDS011;10918;48.102;11.636;2022-07-22T05:12:38;13.30;;;11.85;;
21513;SDS011;10918;48.102;11.636;2022-07-22T05:15:04;13.00;;;11.70;;
21513;SDS011;10918;48.102;11.636;2022-07-22T05:17:30;12.15;;;10.80;;
21513;SDS011;10918;48.102;11.636;2022-07-22T05:19:56;14.23;;;11.93;;
21513;SDS011;10918;48.102;11.636;2022-07-22T05:22:22;13.68;;;11.68;;
21513;SDS011;10918;48.102;11.636;2022-07-22T05:24:48;12.90;;;11.40;;
21513;SDS011;10918;48.102;11.636;2022-07-22T05:27:14;13.20;;;11.80;;
21513;SDS011;10918;48.102;11.636;2022-07-22T05:29:40;13.85;;;12.43;;
21513;SDS011;10918;48.102;11.636;2022-07-22T05:32:06;12.90;;;11.55;;
21513;SDS011;10918;48.102;11.636;2022-07-22T05:34:32;12.00;;;10.80;;
21513;SDS011;10918;48.102;11.636;2022-07-22T05:36:58;13.48;;;11.32;;
21513;SDS011;10918;48.102;11.636;2022-07-22T05:39:24;15.23;;;13.68;;
21513;SDS011;10918;48.102;11.636;2022-07-22T05:41:50;12.23;;;11.02;;
21513;SDS011;10918;48.102;11.636;2022-07-22T05:44:16;13.00;;;11.70;;
21513;SDS011;10918;48.102;11.636;2022-07-22T05:46:42;12.77;;;11.38;;
21513;SDS011;10918;48.102;11.636;2022-07-22T05:49:08;13.93;;;11.68;;
21513;SDS011;10918;48.102;11.636;2022-07-22T05:51:34;12.88;;;11.57;;
21513;SDS011;10918;48.102;11.636;2022-07-22T05:54:00;12.35;;;11.13;;
21513;SDS011;10918;48.102;11.636;2022-07-22T05:56:27;12.75;;;10.80;;
21513;SDS011;10918;48.102;11.636;2022-07-22T05:58:53;13.90;;;12.35;;
21513;SDS011;10918;48.102;11.636;2022-07-22T06:01:21;13.95;;;11.18;;
21513;SDS011;10918;48.102;11.636;2022-07-22T06:03:47;13.35;;;11.95;;
21513;SDS011;10918;48.102;11.636;2022-07-22T06:06:13;13.65;;;11.60;;
21513;SDS011;10918;48.102;11.636;2022-07-22T06:08:39;12.75;;;11.32;;
21513;SDS011;10918;48.102;11.636;2022-07-22T06:11:05;12.75;;;11.45;;
21513;SDS011;10918;48.102;11.636;2022-07-22T06:13:31;17.30;;;11.18;;
21513;SDS011;10918;48.102;11.636;2022-07-22T06:15:58;13.38;;;11.25;;
21513;SDS011;10918;48.102;11.636;2022-07-22T06:18:24;11.25;;;10.18;;
21513;SDS011;10918;48.102;11.636;2022-07-22T06:20:50;14.52;;;11.23;;
21513;SDS011;10918;48.102;11.636;2022-07-22T06:23:16;13.93;;;11.63;;
21513;SDS011;10918;48.102;11.636;2022-07-22T06:25:43;14.80;;;10.98;;
21513;SDS011;10918;48.102;11.636;2022-07-22T06:28:09;12.63;;;11.35;;
21513;SDS011;10918;48.102;11.636;2022-07-22T06:30:35;13.35;;;11.35;;
21513;SDS011;10918;48.102;11.636;2022-07-22T06:33:01;15.25;;;11.52;;
21513;SDS011;10918;48.102;11.636;2022-07-22T06:35:27;14.35;;;11.70;;
21513;SDS011;10918;48.102;11.636;2022-07-22T06:37:53;12.95;;;11.35;;
21513;SDS011;10918;48.102;11.636;2022-07-22T06:40:19;13.82;;;10.90;;
21513;SDS011;10918;48.102;11.636;2022-07-22T06:42:45;12.48;;;10.45;;
21513;SDS011;10918;48.102;11.636;2022-07-22T06:45:11;12.05;;;10.40;;
21513;SDS011;10918;48.102;11.636;2022-07-22T06:47:38;11.25;;;9.93;;
21513;SDS011;10918;48.102;11.636;2022-07-22T06:50:04;13.57;;;11.30;;
21513;SDS011;10918;48.102;11.636;2022-07-22T06:52:31;16.90;;;10.93;;
21513;SDS011;10918;48.102;11.636;2022-07-22T06:54:57;11.85;;;10.52;;
21513;SDS011;10918;48.102;11.636;2022-07-22T06:57:23;12.13;;;10.60;;
21513;SDS011;10918;48.102;11.636;2022-07-22T06:59:49;17.00;;;10.60;;
21513;SDS011;10918;48.102;11.636;2022-07-22T07:02:15;14.02;;;10.88;;
21513;SDS011;10918;48.102;11.636;2022-07-22T07:04:42;13.02;;;10.27;;
21513;SDS011;10918;48.102;11.636;2022-07-22T07:07:08;11.65;;;10.27;;
21513;SDS011;10918;48.102;11.636;2022-07-22T07:09:34;13.60;;;10.10;;
21513;SDS011;10918;48.102;11.636;2022-07-22T07:12:00;12.93;;;10.65;;
21513;SDS011;10918;48.102;11.636;2022-07-22T07:14:26;11.48;;;10.27;;
21513;SDS011;10918;48.102;11.636;2022-07-22T07:16:52;11.35;;;10.25;;
21513;SDS011;10918;48.102;11.636;2022-07-22T07:19:18;11.48;;;10.30;;
21513;SDS011;10918;48.102;11.636;2022-07-22T07:21:45;11.73;;;10.55;;
21513;SDS011;10918;48.102;11.636;2022-07-22T07:24:11;11.15;;;10.05;;
21513;SDS011;10918;48.102;11.636;2022-07-22T07:26:37;12.88;;;10.85;;
21513;SDS011;10918;48.102;11.636;2022-07-22T07:29:03;10.13;;;9.20;;
21513;SDS011;10918;48.102;11.636;2022-07-22T07:31:29;12.35;;;10.10;;
21513;SDS011;10918;48.102;11.636;2022-07-22T07:33:55;11.65;;;9.00;;
21513;SDS011;10918;48.102;11.636;2022-07-22T07:36:21;11.13;;;9.02;;
21513;SDS011;10918;48.102;11.636;2022-07-22T07:38:47;13.43;;;9.52;;
21513;SDS011;10918;48.102;11.636;2022-07-22T07:41:13;11.63;;;9.98;;
21513;SDS011;10918;48.102;11.636;2022-07-22T07:43:39;11.25;;;9.93;;
21513;SDS011;10918;48.102;11.636;2022-07-22T07:46:05;11.00;;;9.85;;
21513;SDS011;10918;48.102;11.636;2022-07-22T07:48:32;11.35;;;10.25;;
21513;SDS011;10918;48.102;11.636;2022-07-22T07:50:58;9.88;;;8.88;;
21513;SDS011;10918;48.102;11.636;2022-07-22T07:53:23;10.70;;;9.63;;
21513;SDS011;10918;48.102;11.636;2022-07-22T07:55:50;10.52;;;9.18;;
21513;SDS011;10918;48.102;11.636;2022-07-22T07:58:16;10.65;;;8.70;;
21513;SDS011;10918;48.102;11.636;2022-07-22T08:00:42;11.25;;;8.98;;
21513;SDS011;10918;48.102;11.636;2022-07-22T08:03:08;9.98;;;8.98;;
21513;SDS011;10918;48.102;11.636;2022-07-22T08:05:35;9.93;;;8.98;;
21513;SDS011;10918;48.102;11.636;2022-07-22T08:08:01;10.07;;;9.07;;
21513;SDS011;10918;48.102;11.636;2022-07-22T08:10:27;10.77;;;9.73;;
21513;SDS011;10918;48.102;11.636;2022-07-22T08:12:54;11.85;;;9.00;;
21513;SDS011;10918;48.102;11.636;2022-07-22T08:15:22;11.10;;;9.23;;
21513;SDS011;10918;48.102;11.636;2022-07-22T08:17:48;12.48;;;9.27;;
21513;SDS011;10918;48.102;11.636;2022-07-22T08:20:14;12.57;;;8.93;;
21513;SDS011;10918;48.102;11.636;2022-07-22T08:22:40;9.98;;;8.95;;
21513;SDS011;10918;48.102;11.636;2022-07-22T08:25:06;9.88;;;8.88;;
21513;SDS011;10918;48.102;11.636;2022-07-22T08:27:33;11.15;;;10.00;;
21513;SDS011;10918;48.102;11.636;2022-07-22T08:29:59;9.85;;;8.85;;
21513;SDS011;10918;48.102;11.636;2022-07-22T08:32:29;10.30;;;9.30;;
21513;SDS011;10918;48.102;11.636;2022-07-22T08:34:55;8.88;;;7.88;;
21513;SDS011;10918;48.102;11.636;2022-07-22T08:37:22;9.98;;;8.55;;
21513;SDS011;10918;48.102;11.636;2022-07-22T08:39:48;11.00;;;8.77;;
21513;SDS011;10918;48.102;11.636;2022-07-22T08:42:14;9.20;;;8.30;;
21513;SDS011;10918;48.102;11.636;2022-07-22T08:44:40;10.05;;;8.27;;
21513;SDS011;10918;48.102;11.636;2022-07-22T08:47:06;8.10;;;7.30;;
21513;SDS011;10918;48.102;11.636;2022-07-22T08:49:32;8.98;;;6.70;;
21513;SDS011;10918;48.102;11.636;2022-07-22T08:51:58;8.68;;;7.35;;
21513;SDS011;10918;48.102;11.636;2022-07-22T08:54:24;7.65;;;6.75;;
21513;SDS011;10918;48.102;11.636;2022-07-22T08:56:50;7.65;;;6.95;;
21513;SDS011;10918;48.102;11.636;2022-07-22T08:59:17;7.28;;;6.55;;
21513;SDS011;10918;48.102;11.636;2022-07-22T09:02:05;7.93;;;7.13;;
21513;SDS011;10918;48.102;11.636;2022-07-22T09:04:31;7.68;;;6.88;;
21513;SDS011;10918;48.102;11.636;2022-07-22T09:06:57;7.70;;;7.00;;
21513;SDS011;10918;48.102;11.636;2022-07-22T09:09:33;7.75;;;7.05;;
21513;SDS011;10918;48.102;11.636;2022-07-22T09:12:08;8.32;;;6.90;;
21513;SDS011;10918;48.102;11.636;2022-07-22T09:14:43;7.10;;;6.32;;
21513;SDS011;10918;48.102;11.636;2022-07-22T09:17:21;9.18;;;6.30;;
21513;SDS011;10918;48.102;11.636;2022-07-22T09:19:47;8.52;;;7.72;;
21513;SDS011;10918;48.102;11.636;2022-07-22T09:22:13;7.85;;;6.43;;
21513;SDS011;10918;48.102;11.636;2022-07-22T09:24:39;8.70;;;7.20;;
21513;SDS011;10918;48.102;11.636;2022-07-22T09:27:05;7.35;;;6.63;;
21513;SDS011;10918;48.102;11.636;2022-07-22T09:29:32;8.63;;;6.53;;
21513;SDS011;10918;48.102;11.636;2022-07-22T09:31:58;6.95;;;6.28;;
21513;SDS011;10918;48.102;11.636;2022-07-22T09:34:29;6.68;;;6.00;;
21513;SDS011;10918;48.102;11.636;2022-07-22T09:36:57;12.68;;;11.52;;
21513;SDS011;10918;48.102;11.636;2022-07-22T09:39:27;6.70;;;6.10;;
21513;SDS011;10918;48.102;11.636;2022-07-22T09:41:57;6.70;;;6.10;;
21513;SDS011;10918;48.102;11.636;2022-07-22T09:44:23;6.75;;;6.05;;
21513;SDS011;10918;48.102;11.636;2022-07-22T09:46:49;6.93;;;6.25;;
21513;SDS011;10918;48.102;11.636;2022-07-22T09:49:31;7.70;;;6.45;;
21513;SDS011;10918;48.102;11.636;2022-07-22T09:51:57;7.35;;;5.60;;
21513;SDS011;10918;48.102;11.636;2022-07-22T09:54:25;6.40;;;5.80;;
21513;SDS011;10918;48.102;11.636;2022-07-22T09:56:51;6.22;;;5.53;;
21513;SDS011;10918;48.102;11.636;2022-07-22T09:59:17;6.30;;;5.68;;
21513;SDS011;10918;48.102;11.636;2022-07-22T10:01:43;7.22;;;5.85;;
21513;SDS011;10918;48.102;11.636;2022-07-22T10:04:09;6.07;;;5.50;;
21513;SDS011;10918;48.102;11.636;2022-07-22T10:06:37;6.97;;;5.43;;
21513;SDS011;10918;48.102;11.636;2022-07-22T10:09:04;6.40;;;5.80;;
21513;SDS011;10918;48.102;11.636;2022-07-22T10:11:31;7.28;;;6.50;;
21513;SDS011;10918;48.102;11.636;2022-07-22T10:13:57;7.70;;;6.10;;
21513;SDS011;10918;48.102;11.636;2022-07-22T10:16:23;7.13;;;6.40;;
21513;SDS011;10918;48.102;11.636;2022-07-22T10:18:49;6.65;;;5.95;;
21513;SDS011;10918;48.102;11.636;2022-07-22T10:21:15;6.88;;;6.18;;
21513;SDS011;10918;48.102;11.636;2022-07-22T10:26:47;6.68;;;6.00;;
21513;SDS011;10918;48.102;11.636;2022-07-22T10:29:32;7.40;;;5.75;;
21513;SDS011;10918;48.102;11.636;2022-07-22T10:35:27;6.20;;;5.70;;
21513;SDS011;10918;48.102;11.636;2022-07-22T10:37:37;6.20;;;5.65;;
21513;SDS011;10918;48.102;11.636;2022-07-22T10:45:19;6.68;;;6.05;;
21513;SDS011;10918;48.102;11.636;2022-07-22T10:47:52;6.28;;;5.63;;
21513;SDS011;10918;48.102;11.636;2022-07-22T10:55:34;8.18;;;6.53;;
21513;SDS011;10918;48.102;11.636;2022-07-22T10:58:32;6.53;;;5.93;;
21513;SDS011;10918;48.102;11.636;2022-07-22T11:00:46;6.47;;;5.88;;
21513;SDS011;10918;48.102;11.636;2022-07-22T11:03:16;6.20;;;5.70;;
21513;SDS011;10918;48.102;11.636;2022-07-22T11:05:49;6.82;;;6.15;;
21513;SDS011;10918;48.102;11.636;2022-07-22T11:08:15;6.05;;;5.53;;
21513;SDS011;10918;48.102;11.636;2022-07-22T11:10:46;6.47;;;5.97;;
21513;SDS011;10918;48.102;11.636;2022-07-22T11:13:13;6.45;;;5.82;;
21513;SDS011;10918;48.102;11.636;2022-07-22T11:15:39;5.93;;;5.43;;
21513;SDS011;10918;48.102;11.636;2022-07-22T11:18:05;6.88;;;5.85;;
21513;SDS011;10918;48.102;11.636;2022-07-22T11:20:31;8.27;;;6.22;;
21513;SDS011;10918;48.102;11.636;2022-07-22T11:22:57;8.90;;;6.28;;
21513;SDS011;10918;48.102;11.636;2022-07-22T11:25:25;6.57;;;6.03;;
21513;SDS011;10918;48.102;11.636;2022-07-22T11:27:51;7.03;;;6.32;;
21513;SDS011;10918;48.102;11.636;2022-07-22T11:30:17;6.10;;;5.50;;
21513;SDS011;10918;48.102;11.636;2022-07-22T11:32:43;6.68;;;5.97;;
21513;SDS011;10918;48.102;11.636;2022-07-22T11:35:12;6.53;;;5.82;;
21513;SDS011;10918;48.102;11.636;2022-07-22T11:37:38;6.65;;;5.80;;
21513;SDS011;10918;48.102;11.636;2022-07-22T11:40:06;6.60;;;6.03;;
21513;SDS011;10918;48.102;11.636;2022-07-22T11:42:32;7.15;;;6.50;;
21513;SDS011;10918;48.102;11.636;2022-07-22T11:44:58;7.00;;;6.30;;
21513;SDS011;10918;48.102;11.636;2022-07-22T11:47:24;6.55;;;5.95;;
21513;SDS011;10918;48.102;11.636;2022-07-22T11:49:50;6.68;;;6.03;;
21513;SDS011;10918;48.102;11.636;2022-07-22T11:52:16;6.70;;;5.80;;
21513;SDS011;10918;48.102;11.636;2022-07-22T11:54:43;6.25;;;5.70;;
21513;SDS011;10918;48.102;11.636;2022-07-22T11:57:09;7.25;;;6.53;;
21513;SDS011;10918;48.102;11.636;2022-07-22T11:59:36;6.60;;;6.00;;
21513;SDS011;10918;48.102;11.636;2022-07-22T12:02:02;6.72;;;6.03;;
21513;SDS011;10918;48.102;11.636;2022-07-22T12:04:29;6.28;;;5.60;;
21513;SDS011;10918;48.102;11.636;2022-07-22T12:06:57;6.97;;;6.38;;
21513;SDS011;10918;48.102;11.636;2022-07-22T12:09:34;6.82;;;6.15;;
21513;SDS011;10918;48.102;11.636;2022-07-22T12:12:01;8.05;;;6.70;;
21513;SDS011;10918;48.102;11.636;2022-07-22T12:14:28;6.15;;;5.65;;
21513;SDS011;10918;48.102;11.636;2022-07-22T12:19:20;7.93;;;5.55;;
21513;SDS011;10918;48.102;11.636;2022-07-22T12:24:27;8.50;;;6.65;;
21513;SDS011;10918;48.102;11.636;2022-07-22T12:26:55;8.48;;;6.35;;
21513;SDS011;10918;48.102;11.636;2022-07-22T12:29:22;7.35;;;5.60;;
21513;SDS011;10918;48.102;11.636;2022-07-22T12:31:53;6.93;;;6.20;;
21513;SDS011;10918;48.102;11.636;2022-07-22T12:34:37;7.40;;;6.63;;
21513;SDS011;10918;48.102;11.636;2022-07-22T12:37:13;7.10;;;6.40;;
21513;SDS011;10918;48.102;11.636;2022-07-22T12:39:51;6.25;;;5.68;;
21513;SDS011;10918;48.102;11.636;2022-07-22T12:42:17;7.35;;;6.18;;
21513;SDS011;10918;48.102;11.636;2022-07-22T12:44:50;7.20;;;6.50;;
21513;SDS011;10918;48.102;11.636;2022-07-22T12:47:17;8.80;;;6.40;;
21513;SDS011;10918;48.102;11.636;2022-07-22T12:49:43;6.68;;;5.93;;
21513;SDS011;10918;48.102;11.636;2022-07-22T12:52:10;7.18;;;6.47;;
21513;SDS011;10918;48.102;11.636;2022-07-22T12:54:37;7.55;;;6.45;;
21513;SDS011;10918;48.102;11.636;2022-07-22T12:57:04;6.50;;;5.90;;
21513;SDS011;10918;48.102;11.636;2022-07-22T12:59:30;6.97;;;6.35;;
21513;SDS011;10918;48.102;11.636;2022-07-22T13:01:56;6.88;;;6.28;;
21513;SDS011;10918;48.102;11.636;2022-07-22T13:04:22;6.97;;;6.38;;
21513;SDS011;10918;48.102;11.636;2022-07-22T13:06:48;7.07;;;6.40;;
21513;SDS011;10918;48.102;11.636;2022-07-22T13:09:14;7.13;;;6.43;;
21513;SDS011;10918;48.102;11.636;2022-07-22T13:11:40;7.22;;;6.38;;
21513;SDS011;10918;48.102;11.636;2022-07-22T13:14:10;7.10;;;6.43;;
21513;SDS011;10918;48.102;11.636;2022-07-22T13:16:36;7.13;;;6.13;;
21513;SDS011;10918;48.102;11.636;2022-07-22T13:19:02;7.43;;;6.68;;
21513;SDS011;10918;48.102;11.636;2022-07-22T13:21:28;6.97;;;5.93;;
21513;SDS011;10918;48.102;11.636;2022-07-22T13:23:54;6.63;;;6.13;;
21513;SDS011;10918;48.102;11.636;2022-07-22T13:26:20;7.20;;;6.50;;
21513;SDS011;10918;48.102;11.636;2022-07-22T13:28:46;8.55;;;6.63;;
21513;SDS011;10918;48.102;11.636;2022-07-22T13:31:12;7.63;;;6.22;;
21513;SDS011;10918;48.102;11.636;2022-07-22T13:33:38;6.70;;;6.10;;
21513;SDS011;10918;48.102;11.636;2022-07-22T13:36:04;8.95;;;6.70;;
21513;SDS011;10918;48.102;11.636;2022-07-22T13:38:31;7.22;;;6.63;;
21513;SDS011;10918;48.102;11.636;2022-07-22T13:40:57;7.68;;;6.97;;
21513;SDS011;10918;48.102;11.636;2022-07-22T13:43:23;7.63;;;6.18;;
21513;SDS011;10918;48.102;11.636;2022-07-22T13:45:50;7.00;;;6.40;;
21513;SDS011;10918;48.102;11.636;2022-07-22T13:48:17;7.20;;;6.60;;
21513;SDS011;10918;48.102;11.636;2022-07-22T13:50:44;7.57;;;6.32;;
21513;SDS011;10918;48.102;11.636;2022-07-22T13:53:10;6.85;;;6.25;;
21513;SDS011;10918;48.102;11.636;2022-07-22T13:55:39;6.95;;;6.25;;
21513;SDS011;10918;48.102;11.636;2022-07-22T13:58:05;6.45;;;5.95;;
21513;SDS011;10918;48.102;11.636;2022-07-22T14:00:32;7.45;;;6.55;;
21513;SDS011;10918;48.102;11.636;2022-07-22T14:02:58;6.80;;;6.20;;
21513;SDS011;10918;48.102;11.636;2022-07-22T14:05:24;8.52;;;6.30;;
21513;SDS011;10918;48.102;11.636;2022-07-22T14:07:50;6.90;;;5.90;;
21513;SDS011;10918;48.102;11.636;2022-07-22T14:10:17;6.80;;;6.15;;
21513;SDS011;10918;48.102;11.636;2022-07-22T14:12:43;7.68;;;6.20;;
21513;SDS011;10918;48.102;11.636;2022-07-22T14:15:09;6.25;;;5.25;;
21513;SDS011;10918;48.102;11.636;2022-07-22T14:17:35;5.85;;;5.45;;
21513;SDS011;10918;48.102;11.636;2022-07-22T14:20:02;6.18;;;5.70;;
21513;SDS011;10918;48.102;11.636;2022-07-22T14:22:29;5.93;;;5.30;;
21513;SDS011;10918;48.102;11.636;2022-07-22T14:24:55;5.80;;;5.20;;
21513;SDS011;10918;48.102;11.636;2022-07-22T14:27:21;6.28;;;5.68;;
21513;SDS011;10918;48.102;11.636;2022-07-22T14:29:47;5.72;;;5.32;;
21513;SDS011;10918;48.102;11.636;2022-07-22T14:32:13;5.63;;;5.20;;
21513;SDS011;10918;48.102;11.636;2022-07-22T14:34:39;5.60;;;5.20;;
21513;SDS011;10918;48.102;11.636;2022-07-22T14:37:05;6.47;;;5.97;;
21513;SDS011;10918;48.102;11.636;2022-07-22T14:39:33;6.05;;;5.55;;